createdAt,value
2023-03-06T00:00:26.020Z,4.60
2023-03-06T00:02:53.031Z,4.60
2023-03-06T00:05:19.937Z,4.60
2023-03-06T00:07:46.493Z,4.60
2023-03-06T00:10:16.555Z,4.60
2023-03-06T00:12:43.126Z,4.70
2023-03-06T00:15:10.249Z,4.70
2023-03-06T00:17:37.627Z,4.60
2023-03-06T00:20:05.714Z,4.70
2023-03-06T00:22:32.314Z,4.60
2023-03-06T00:24:58.883Z,4.60
2023-03-06T00:27:26.175Z,4.70
2023-03-06T00:29:56.889Z,4.70
2023-03-06T00:32:24.266Z,4.70
2023-03-06T00:34:52.512Z,4.70
2023-03-06T00:37:19.938Z,4.80
2023-03-06T00:39:46.621Z,4.80
2023-03-06T00:42:13.259Z,4.90
2023-03-06T00:44:39.845Z,4.90
2023-03-06T00:47:06.717Z,4.90
2023-03-06T00:49:33.308Z,4.80
2023-03-06T00:52:00.023Z,4.80
2023-03-06T00:54:26.585Z,4.70
2023-03-06T00:56:53.165Z,4.70
2023-03-06T00:59:19.842Z,4.70
2023-03-06T01:01:46.517Z,4.80
2023-03-06T01:04:13.231Z,4.80
2023-03-06T01:06:39.918Z,4.80
2023-03-06T01:09:06.454Z,4.80
2023-03-06T01:11:33.037Z,4.80
2023-03-06T01:13:59.704Z,4.80
2023-03-06T01:16:26.308Z,4.80
2023-03-06T01:18:52.863Z,4.80
2023-03-06T01:21:20.054Z,4.80
2023-03-06T01:23:47.357Z,4.80
2023-03-06T01:26:14.099Z,4.70
2023-03-06T01:28:40.899Z,4.70
2023-03-06T01:31:08.906Z,4.70
2023-03-06T01:33:36.125Z,4.70
2023-03-06T01:36:11.112Z,4.70
2023-03-06T01:38:38.551Z,4.80
2023-03-06T01:41:06.026Z,4.70
2023-03-06T01:43:37.728Z,4.70
2023-03-06T01:46:22.486Z,4.60
2023-03-06T01:48:53.697Z,4.70
2023-03-06T01:51:20.900Z,4.70
2023-03-06T01:53:49.626Z,4.60
2023-03-06T01:56:16.437Z,4.60
2023-03-06T01:58:44.149Z,4.60
2023-03-06T02:01:12.901Z,4.60
2023-03-06T02:03:41.215Z,4.60
2023-03-06T02:06:08.346Z,4.50
2023-03-06T02:08:35.015Z,4.40
2023-03-06T02:11:37.134Z,4.30
2023-03-06T02:14:03.889Z,4.30
2023-03-06T02:16:34.523Z,4.20
2023-03-06T02:19:02.764Z,4.20
2023-03-06T02:21:34.180Z,4.10
2023-03-06T02:24:23.456Z,4.00
2023-03-06T02:26:51.874Z,4.00
2023-03-06T02:29:26.524Z,3.90
2023-03-06T02:31:53.203Z,3.90
2023-03-06T02:34:19.669Z,3.80
2023-03-06T02:36:50.538Z,3.80
2023-03-06T02:39:21.386Z,3.80
2023-03-06T02:41:48.007Z,3.80
2023-03-06T02:44:14.638Z,3.80
2023-03-06T02:46:41.151Z,3.80
2023-03-06T02:49:07.688Z,3.80
2023-03-06T02:51:34.621Z,3.80
2023-03-06T02:54:01.357Z,3.80
2023-03-06T02:56:27.968Z,3.80
2023-03-06T02:58:54.502Z,3.90
2023-03-06T03:01:21.172Z,3.90
2023-03-06T03:03:47.700Z,3.90
2023-03-06T03:06:14.358Z,3.90
2023-03-06T03:08:40.975Z,3.90
2023-03-06T03:11:09.099Z,3.90
2023-03-06T03:13:36.329Z,3.80
2023-03-06T03:16:08.639Z,3.70
2023-03-06T03:18:35.742Z,3.60
2023-03-06T03:21:06.475Z,3.60
2023-03-06T03:23:33.227Z,3.60
2023-03-06T03:26:11.832Z,3.50
2023-03-06T03:28:38.510Z,3.50
2023-03-06T03:31:07.206Z,3.40
2023-03-06T03:33:34.004Z,3.40
2023-03-06T03:36:03.366Z,3.30
2023-03-06T03:38:30.404Z,3.30
2023-03-06T03:40:56.910Z,3.40
2023-03-06T03:43:23.607Z,3.30
2023-03-06T03:45:50.176Z,3.30
2023-03-06T03:48:16.703Z,3.40
2023-03-06T03:50:43.236Z,3.40
2023-03-06T03:53:10.084Z,3.30
2023-03-06T03:55:36.897Z,3.30
2023-03-06T03:58:03.468Z,3.30
2023-03-06T04:00:29.989Z,3.30
2023-03-06T04:02:56.589Z,3.30
2023-03-06T04:05:23.390Z,3.30
2023-03-06T04:07:49.945Z,3.30
2023-03-06T04:10:16.533Z,3.30
2023-03-06T04:12:43.153Z,3.20
2023-03-06T04:15:10.050Z,3.20
2023-03-06T04:17:36.686Z,3.20
2023-03-06T04:20:04.783Z,3.30
2023-03-06T04:22:31.371Z,3.30
2023-03-06T04:24:57.913Z,3.20
2023-03-06T04:27:24.454Z,3.20
2023-03-06T04:29:51.031Z,3.10
2023-03-06T04:32:19.691Z,3.00
2023-03-06T04:34:47.920Z,3.00
2023-03-06T04:37:20.536Z,3.10
2023-03-06T04:39:47.380Z,3.10
2023-03-06T04:42:14.003Z,3.10
2023-03-06T04:44:40.641Z,3.00
2023-03-06T04:47:07.469Z,3.10
2023-03-06T04:49:34.643Z,3.10
2023-03-06T04:52:01.308Z,3.10
2023-03-06T04:54:27.894Z,3.10
2023-03-06T04:56:54.431Z,3.10
2023-03-06T04:59:21.016Z,3.10
2023-03-06T05:01:47.642Z,3.20
2023-03-06T05:04:14.251Z,3.20
2023-03-06T05:06:40.963Z,3.20
2023-03-06T05:09:07.798Z,3.20
2023-03-06T05:11:34.367Z,3.10
2023-03-06T05:14:00.903Z,3.10
2023-03-06T05:16:27.566Z,3.10
2023-03-06T05:18:54.144Z,3.30
2023-03-06T05:21:20.776Z,3.40
2023-03-06T05:23:47.475Z,3.40
2023-03-06T05:26:15.096Z,3.40
2023-03-06T05:28:41.814Z,3.50
2023-03-06T05:31:08.563Z,3.50
2023-03-06T05:33:36.083Z,3.60
2023-03-06T05:36:03.623Z,3.50
2023-03-06T05:38:30.352Z,3.50
2023-03-06T05:40:56.906Z,3.50
2023-03-06T05:43:23.557Z,3.40
2023-03-06T05:45:53.015Z,3.30
2023-03-06T05:48:19.708Z,3.30
2023-03-06T05:50:46.215Z,3.30
2023-03-06T05:53:12.755Z,3.40
2023-03-06T05:55:39.356Z,3.40
2023-03-06T05:58:05.940Z,3.30
2023-03-06T06:00:32.457Z,3.30
2023-03-06T06:03:02.037Z,3.30
2023-03-06T06:05:28.586Z,3.40
2023-03-06T06:07:55.138Z,3.50
2023-03-06T06:10:21.664Z,3.60
2023-03-06T06:12:48.250Z,3.70
2023-03-06T06:15:15.282Z,3.70
2023-03-06T06:17:41.800Z,3.70
2023-03-06T06:20:09.126Z,3.70
2023-03-06T06:22:37.863Z,3.70
2023-03-06T06:25:06.472Z,3.70
2023-03-06T06:27:33.114Z,3.80
2023-03-06T06:29:59.650Z,3.70
2023-03-06T06:32:26.262Z,3.70
2023-03-06T06:34:52.851Z,3.50
2023-03-06T06:37:19.466Z,3.50
2023-03-06T06:39:46.002Z,3.60
2023-03-06T06:42:30.481Z,3.60
2023-03-06T06:44:59.203Z,3.60
2023-03-06T06:47:26.176Z,3.60
2023-03-06T06:49:54.475Z,3.60
2023-03-06T06:52:21.937Z,3.70
2023-03-06T06:54:48.515Z,3.80
2023-03-06T06:57:15.918Z,3.80
2023-03-06T06:59:42.605Z,3.80
2023-03-06T07:02:15.553Z,3.90
2023-03-06T07:04:56.252Z,3.90
2023-03-06T07:07:29.494Z,4.00
2023-03-06T07:09:56.282Z,4.10
2023-03-06T07:12:22.915Z,4.10
2023-03-06T07:14:49.427Z,4.10
2023-03-06T07:17:16.002Z,4.10
2023-03-06T07:19:42.531Z,4.10
2023-03-06T07:22:09.219Z,4.10
2023-03-06T07:24:35.795Z,4.10
2023-03-06T07:27:02.337Z,4.10
2023-03-06T07:29:29.279Z,4.20
2023-03-06T07:31:55.929Z,4.20
2023-03-06T07:34:22.567Z,4.20
2023-03-06T07:36:50.633Z,4.30
2023-03-06T07:39:17.411Z,4.30
2023-03-06T07:41:44.025Z,4.30
2023-03-06T07:44:10.750Z,4.30
2023-03-06T07:46:37.406Z,4.40
2023-03-06T07:49:04.001Z,4.40
2023-03-06T07:51:30.591Z,4.50
2023-03-06T07:53:57.169Z,4.50
2023-03-06T07:56:23.777Z,4.50
2023-03-06T07:58:50.291Z,4.50
2023-03-06T08:01:19.937Z,4.50
2023-03-06T08:03:47.528Z,4.50
2023-03-06T08:06:20.626Z,4.50
2023-03-06T08:08:48.109Z,4.50
2023-03-06T08:11:16.955Z,4.50
2023-03-06T08:13:44.327Z,4.50
2023-03-06T08:16:11.450Z,4.50
2023-03-06T08:18:41.184Z,4.50
2023-03-06T08:21:12.177Z,4.60
2023-03-06T08:23:39.872Z,4.60
2023-03-06T08:26:18.112Z,4.70
2023-03-06T08:28:44.887Z,4.80
2023-03-06T08:31:29.330Z,4.80
2023-03-06T08:33:58.014Z,4.80
2023-03-06T08:36:25.006Z,4.80
2023-03-06T08:38:51.923Z,4.90
2023-03-06T08:41:20.270Z,4.80
2023-03-06T08:43:47.184Z,4.90
2023-03-06T08:46:14.115Z,4.90
2023-03-06T08:48:41.037Z,4.90
2023-03-06T08:51:10.878Z,5.00
2023-03-06T08:53:43.001Z,5.00
2023-03-06T08:56:25.543Z,5.10
2023-03-06T08:58:53.072Z,5.20
2023-03-06T09:01:25.005Z,5.20
2023-03-06T09:03:54.209Z,5.30
2023-03-06T09:06:20.969Z,5.30
2023-03-06T09:08:47.533Z,5.30
2023-03-06T09:11:15.557Z,5.30
2023-03-06T09:13:42.947Z,5.30
2023-03-06T09:16:11.105Z,5.40
2023-03-06T09:18:37.893Z,5.50
2023-03-06T09:21:05.932Z,5.50
2023-03-06T09:23:33.290Z,5.60
2023-03-06T09:26:00.569Z,5.70
2023-03-06T09:28:27.205Z,5.70
2023-03-06T09:30:54.292Z,5.70
2023-03-06T09:33:21.405Z,5.70
2023-03-06T09:35:53.857Z,5.90
2023-03-06T09:38:23.053Z,5.90
2023-03-06T09:40:58.257Z,6.00
2023-03-06T09:43:45.260Z,6.20
2023-03-06T09:46:44.416Z,6.30
2023-03-06T09:49:43.586Z,6.40
2023-03-06T09:52:29.647Z,6.50
2023-03-06T09:55:18.450Z,6.60
2023-03-06T09:58:13.358Z,6.70
2023-03-06T10:00:55.802Z,6.90
2023-03-06T10:03:38.710Z,7.00
2023-03-06T10:06:19.988Z,7.20
2023-03-06T10:08:48.654Z,7.40
2023-03-06T10:11:22.178Z,7.40
2023-03-06T10:13:54.483Z,7.50
2023-03-06T10:16:31.250Z,7.50
2023-03-06T10:19:03.907Z,7.50
2023-03-06T10:21:46.605Z,7.60
2023-03-06T10:24:18.772Z,7.70
2023-03-06T10:26:54.443Z,7.90
2023-03-06T10:29:56.289Z,8.00
2023-03-06T10:32:48.256Z,8.20
2023-03-06T10:35:23.730Z,8.30
2023-03-06T10:37:50.402Z,8.20
2023-03-06T10:40:21.631Z,8.30
2023-03-06T10:42:49.523Z,8.30
2023-03-06T10:45:18.783Z,8.40
2023-03-06T10:47:46.001Z,8.30
2023-03-06T10:50:30.454Z,8.30
2023-03-06T10:53:15.270Z,8.30
2023-03-06T10:55:54.999Z,8.30
2023-03-06T10:58:27.715Z,8.20
2023-03-06T11:01:21.602Z,8.10
2023-03-06T11:03:48.527Z,7.90
2023-03-06T11:06:30.376Z,7.70
2023-03-06T11:09:15.266Z,7.70
2023-03-06T11:11:41.872Z,7.60
2023-03-06T11:14:16.974Z,7.60
2023-03-06T11:16:54.240Z,7.50
2023-03-06T11:19:27.887Z,7.50
2023-03-06T11:22:04.327Z,7.50
2023-03-06T11:24:45.825Z,7.50
2023-03-06T11:27:34.320Z,7.40
2023-03-06T11:30:07.561Z,7.40
2023-03-06T11:32:43.982Z,7.50
2023-03-06T11:35:15.799Z,7.50
2023-03-06T11:38:06.681Z,7.50
2023-03-06T11:40:59.869Z,7.50
2023-03-06T11:43:46.697Z,7.50
2023-03-06T11:46:31.729Z,7.70
2023-03-06T11:49:25.971Z,7.80
2023-03-06T11:51:56.452Z,7.90
2023-03-06T11:54:23.382Z,8.20
2023-03-06T11:56:58.094Z,8.30
2023-03-06T11:59:31.199Z,8.40
2023-03-06T12:02:39.136Z,8.40
2023-03-06T12:05:39.941Z,8.30
2023-03-06T12:08:19.797Z,8.40
2023-03-06T12:10:51.976Z,8.40
2023-03-06T12:13:44.959Z,8.30
2023-03-06T12:16:39.021Z,8.40
2023-03-06T12:19:22.470Z,8.30
2023-03-06T12:22:14.145Z,8.30
2023-03-06T12:25:10.356Z,8.20
2023-03-06T12:28:02.930Z,8.10
2023-03-06T12:31:06.891Z,8.10
2023-03-06T12:34:06.564Z,8.00
2023-03-06T12:37:10.506Z,7.90
2023-03-06T12:39:36.991Z,7.90
2023-03-06T12:42:11.479Z,7.90
2023-03-06T12:45:03.061Z,7.80
2023-03-06T12:47:33.231Z,7.80
2023-03-06T12:50:08.154Z,7.80
2023-03-06T12:52:35.383Z,7.80
2023-03-06T12:55:07.419Z,7.70
2023-03-06T12:57:34.052Z,7.80
2023-03-06T13:00:00.652Z,7.80
2023-03-06T13:02:29.968Z,7.80
2023-03-06T13:05:10.440Z,7.70
2023-03-06T13:07:57.269Z,7.60
2023-03-06T13:10:31.537Z,7.60
2023-03-06T13:13:23.681Z,7.60
2023-03-06T13:16:21.344Z,7.60
2023-03-06T13:18:57.783Z,7.60
2023-03-06T13:21:42.777Z,7.70
2023-03-06T13:24:17.136Z,7.70
2023-03-06T13:26:43.638Z,7.80
2023-03-06T13:29:39.751Z,7.90
2023-03-06T13:32:17.243Z,8.10
2023-03-06T13:34:49.961Z,8.20
2023-03-06T13:37:20.018Z,8.20
2023-03-06T13:39:55.509Z,8.20
2023-03-06T13:42:31.577Z,8.10
2023-03-06T13:45:29.738Z,8.10
2023-03-06T13:48:24.487Z,8.10
2023-03-06T13:50:47.410Z,8.10
2023-03-06T13:53:35.170Z,7.90
2023-03-06T13:56:13.640Z,7.90
2023-03-06T13:59:13.799Z,7.90
2023-03-06T14:02:31.500Z,7.90
2023-03-06T14:04:59.711Z,8.00
2023-03-06T14:07:30.769Z,7.90
2023-03-06T14:10:09.778Z,7.90
2023-03-06T14:12:40.680Z,7.90
2023-03-06T14:15:23.798Z,7.90
2023-03-06T14:17:58.887Z,7.90
2023-03-06T14:20:46.049Z,7.80
2023-03-06T14:23:21.636Z,7.80
2023-03-06T14:25:54.891Z,7.70
2023-03-06T14:28:27.492Z,7.70
2023-03-06T14:30:56.603Z,7.70
2023-03-06T14:33:34.963Z,7.60
2023-03-06T14:36:04.729Z,7.50
2023-03-06T14:38:38.701Z,7.50
2023-03-06T14:41:06.097Z,7.40
2023-03-06T14:43:32.812Z,7.50
2023-03-06T14:46:06.312Z,7.40
2023-03-06T14:48:42.288Z,7.40
2023-03-06T14:51:17.470Z,7.30
2023-03-06T14:53:45.691Z,7.30
2023-03-06T14:56:17.660Z,7.20
2023-03-06T14:58:55.411Z,7.20
2023-03-06T15:01:46.273Z,7.20
2023-03-06T15:04:55.120Z,7.30
2023-03-06T15:07:28.595Z,7.30
2023-03-06T15:09:55.694Z,7.20
2023-03-06T15:12:30.931Z,7.20
2023-03-06T15:15:00.551Z,7.10
2023-03-06T15:17:27.298Z,7.10
2023-03-06T15:19:56.548Z,7.10
2023-03-06T15:22:31.811Z,7.00
2023-03-06T15:25:20.986Z,7.00
2023-03-06T15:27:50.573Z,7.00
2023-03-06T15:30:23.343Z,7.00
2023-03-06T15:32:49.976Z,7.00
2023-03-06T15:35:31.773Z,7.00
2023-03-06T15:37:59.444Z,7.00
2023-03-06T15:40:29.473Z,7.00
2023-03-06T15:42:56.589Z,7.00
2023-03-06T15:45:24.874Z,7.00
2023-03-06T15:47:53.246Z,7.00
2023-03-06T15:50:29.106Z,6.90
2023-03-06T15:52:55.853Z,6.80
2023-03-06T15:55:25.926Z,6.80
2023-03-06T15:58:02.723Z,6.80
2023-03-06T16:00:35.024Z,6.80
2023-03-06T16:03:02.088Z,6.80
2023-03-06T16:05:29.706Z,6.80
2023-03-06T16:07:56.416Z,6.90
2023-03-06T16:10:25.722Z,6.80
2023-03-06T16:13:04.428Z,6.80
2023-03-06T16:15:36.202Z,6.70
2023-03-06T16:18:02.753Z,6.70
2023-03-06T16:20:29.776Z,6.70
2023-03-06T16:22:56.859Z,6.80
2023-03-06T16:25:25.978Z,6.80
2023-03-06T16:27:58.738Z,6.70
2023-03-06T16:30:33.688Z,6.80
2023-03-06T16:33:00.259Z,6.80
2023-03-06T16:35:27.575Z,6.80
2023-03-06T16:37:54.306Z,6.70
2023-03-06T16:40:29.233Z,6.80
2023-03-06T16:42:56.284Z,6.80
2023-03-06T16:45:23.532Z,6.70
2023-03-06T16:47:50.328Z,6.70
2023-03-06T16:50:35.274Z,6.70
2023-03-06T16:53:02.100Z,6.60
2023-03-06T16:55:28.726Z,6.60
2023-03-06T16:57:55.435Z,6.60
2023-03-06T17:00:24.606Z,6.60
2023-03-06T17:02:52.250Z,6.50
2023-03-06T17:05:19.829Z,6.60
2023-03-06T17:07:46.564Z,6.60
2023-03-06T17:10:15.941Z,6.50
2023-03-06T17:12:43.397Z,6.50
2023-03-06T17:15:11.184Z,6.50
2023-03-06T17:17:38.258Z,6.50
2023-03-06T17:20:07.967Z,6.40
2023-03-06T17:22:35.784Z,6.50
2023-03-06T17:25:04.697Z,6.40
2023-03-06T17:27:31.526Z,6.40
2023-03-06T17:29:58.349Z,6.40
2023-03-06T17:32:26.604Z,6.40
2023-03-06T17:34:53.622Z,6.40
2023-03-06T17:37:20.719Z,6.30
2023-03-06T17:39:47.271Z,6.30
2023-03-06T17:42:13.879Z,6.30
2023-03-06T17:44:40.502Z,6.30
2023-03-06T17:47:07.148Z,6.20
2023-03-06T17:49:33.716Z,6.20
2023-03-06T17:52:02.606Z,6.10
2023-03-06T17:54:30.004Z,6.10
2023-03-06T17:57:00.881Z,6.10
2023-03-06T17:59:28.006Z,6.10
2023-03-06T18:01:58.619Z,6.00
2023-03-06T18:04:25.710Z,6.10
2023-03-06T18:06:52.466Z,6.10
2023-03-06T18:09:19.134Z,6.20
2023-03-06T18:11:45.669Z,6.20
2023-03-06T18:14:12.452Z,6.20
2023-03-06T18:16:39.108Z,6.20
2023-03-06T18:19:05.688Z,6.20
2023-03-06T18:21:32.324Z,6.10
2023-03-06T18:23:58.895Z,6.10
2023-03-06T18:26:27.676Z,6.20
2023-03-06T18:29:01.225Z,6.10
2023-03-06T18:31:31.752Z,6.00
2023-03-06T18:34:01.490Z,6.00
2023-03-06T18:36:30.985Z,6.00
2023-03-06T18:38:58.582Z,6.00
2023-03-06T18:41:25.146Z,6.00
2023-03-06T18:43:53.726Z,6.00
2023-03-06T18:46:20.578Z,6.00
2023-03-06T18:48:47.189Z,6.00
2023-03-06T18:51:15.357Z,6.00
2023-03-06T18:53:42.112Z,6.00
2023-03-06T18:56:14.143Z,6.00
2023-03-06T18:58:40.723Z,6.00
2023-03-06T19:01:07.701Z,6.00
2023-03-06T19:03:34.418Z,6.00
2023-03-06T19:06:08.293Z,6.00
2023-03-06T19:08:36.101Z,6.00
2023-03-06T19:11:08.276Z,6.00
2023-03-06T19:13:35.029Z,6.00
2023-03-06T19:16:01.886Z,6.00
2023-03-06T19:18:29.540Z,5.90
2023-03-06T19:21:17.288Z,5.90
2023-03-06T19:23:44.449Z,5.90
2023-03-06T19:26:11.653Z,5.90
2023-03-06T19:28:40.298Z,5.90
2023-03-06T19:31:19.883Z,6.00
2023-03-06T19:33:48.603Z,6.00
2023-03-06T19:36:17.033Z,6.00
2023-03-06T19:38:43.588Z,5.90
2023-03-06T19:41:13.678Z,6.00
2023-03-06T19:43:43.671Z,6.00
2023-03-06T19:46:14.184Z,6.00
2023-03-06T19:48:43.766Z,6.00
2023-03-06T19:51:11.177Z,6.00
2023-03-06T19:53:39.501Z,6.00
2023-03-06T19:56:13.025Z,6.00
2023-03-06T19:58:40.557Z,6.00
2023-03-06T20:01:10.689Z,6.00
2023-03-06T20:03:38.234Z,5.90
2023-03-06T20:06:09.081Z,5.90
2023-03-06T20:08:36.616Z,5.90
2023-03-06T20:11:03.952Z,5.90
2023-03-06T20:13:30.837Z,5.90
2023-03-06T20:16:01.486Z,5.90
2023-03-06T20:18:28.075Z,5.90
2023-03-06T20:20:59.697Z,5.90
2023-03-06T20:23:26.955Z,5.80
2023-03-06T20:25:53.579Z,5.80
2023-03-06T20:28:20.305Z,5.80
2023-03-06T20:30:46.877Z,5.80
2023-03-06T20:33:15.176Z,5.80
2023-03-06T20:35:42.950Z,5.80
2023-03-06T20:38:10.469Z,5.80
2023-03-06T20:40:42.228Z,5.80
2023-03-06T20:43:08.939Z,5.70
2023-03-06T20:45:35.730Z,5.70
2023-03-06T20:48:02.312Z,5.70
2023-03-06T20:50:28.893Z,5.70
2023-03-06T20:52:58.308Z,5.70
2023-03-06T20:55:25.069Z,5.70
2023-03-06T20:57:52.494Z,5.70
2023-03-06T21:00:20.849Z,5.80
2023-03-06T21:02:47.461Z,5.80
2023-03-06T21:05:14.075Z,5.80
2023-03-06T21:07:40.768Z,5.80
2023-03-06T21:10:08.364Z,5.80
2023-03-06T21:12:34.958Z,5.80
2023-03-06T21:15:01.533Z,5.70
2023-03-06T21:17:30.005Z,5.70
2023-03-06T21:19:57.502Z,5.80
2023-03-06T21:22:24.228Z,5.80
2023-03-06T21:24:50.789Z,5.80
2023-03-06T21:27:17.300Z,5.70
2023-03-06T21:29:45.045Z,5.70
2023-03-06T21:32:11.886Z,5.70
2023-03-06T21:34:38.437Z,5.70
2023-03-06T21:37:05.010Z,5.80
2023-03-06T21:39:31.545Z,5.80
2023-03-06T21:41:58.071Z,5.80
2023-03-06T21:44:24.703Z,5.80
2023-03-06T21:46:51.236Z,5.80
2023-03-06T21:49:18.097Z,5.80
2023-03-06T21:51:44.652Z,5.80
2023-03-06T21:54:12.913Z,5.80
2023-03-06T21:56:39.442Z,5.70
2023-03-06T21:59:05.968Z,5.70
2023-03-06T22:01:32.758Z,5.70
2023-03-06T22:04:00.134Z,5.70
2023-03-06T22:06:28.721Z,5.70
2023-03-06T22:08:56.161Z,5.70
2023-03-06T22:11:24.221Z,5.70
2023-03-06T22:13:53.150Z,5.70
2023-03-06T22:16:20.737Z,5.60
2023-03-06T22:18:49.548Z,5.60
2023-03-06T22:21:18.607Z,5.50
2023-03-06T22:23:52.703Z,5.50
2023-03-06T22:26:20.213Z,5.50
2023-03-06T22:28:47.073Z,5.50
2023-03-06T22:31:23.924Z,5.60
2023-03-06T22:33:52.218Z,5.60
2023-03-06T22:36:19.226Z,5.60
2023-03-06T22:38:47.711Z,5.60
2023-03-06T22:41:16.499Z,5.60
2023-03-06T22:43:43.288Z,5.60
2023-03-06T22:46:15.146Z,5.60
2023-03-06T22:48:42.514Z,5.60
2023-03-06T22:51:14.960Z,5.60
2023-03-06T22:53:41.878Z,5.60
2023-03-06T22:56:11.553Z,5.60
2023-03-06T22:58:38.914Z,5.60
2023-03-06T23:01:16.097Z,5.60
2023-03-06T23:03:45.174Z,5.60
2023-03-06T23:06:17.857Z,5.60
2023-03-06T23:08:47.951Z,5.60
2023-03-06T23:11:16.740Z,5.60
2023-03-06T23:13:43.392Z,5.50
2023-03-06T23:16:10.275Z,5.50
2023-03-06T23:18:39.156Z,5.60
2023-03-06T23:21:10.871Z,5.60
2023-03-06T23:23:38.763Z,5.60
2023-03-06T23:26:07.148Z,5.60
2023-03-06T23:28:37.496Z,5.60
2023-03-06T23:31:15.694Z,5.70
2023-03-06T23:33:42.515Z,5.60
2023-03-06T23:36:11.838Z,5.60
2023-03-06T23:38:38.715Z,5.60
2023-03-06T23:41:11.805Z,5.60
2023-03-06T23:43:38.512Z,5.60
2023-03-06T23:46:06.965Z,5.60
2023-03-06T23:48:35.591Z,5.60
2023-03-06T23:51:19.794Z,5.50
2023-03-06T23:53:47.524Z,5.40
2023-03-06T23:56:14.461Z,5.40
2023-03-06T23:58:41.058Z,5.30
